| time (UTC) | temp C | wind direction | speed KPH | gust KPH | rain 1hr cm | rain 24hr cm | rain mn cm | humidity % | barometer mb |
| 20260906234505 | 13 | 154 | 0.0 | 1.6 | 0.00 | 0.25 | 0.13 | 90 | 1016.6 |
| 20260906233505 | 13 | 182 | 0.0 | 0.0 | 0.00 | 0.28 | 0.13 | 91 | 1016.5 |
| 20260906232006 | 13 | 152 | 1.6 | 4.8 | 0.00 | 0.28 | 0.13 | 90 | 1016.5 |
| 20260906231505 | 13 | 121 | 0.0 | 3.2 | 0.00 | 0.30 | 0.13 | 90 | 1016.6 |
| 20260906230506 | 13 | 98 | 1.6 | 3.2 | 0.00 | 0.30 | 0.13 | 90 | 1016.7 |
| 20260906230005 | 13 | 157 | 0.0 | 3.2 | 0.00 | 0.30 | 0.13 | 90 | 1016.8 |
| 20260906225505 | 13 | 151 | 3.2 | 9.7 | 0.00 | 0.30 | 0.13 | 89 | 1016.8 |
| 20260906225005 | 13 | 141 | 1.6 | 4.8 | 0.00 | 0.30 | 0.13 | 90 | 1016.8 |
| 20260906224505 | 13 | 138 | 3.2 | 8.0 | 0.00 | 0.30 | 0.13 | 89 | 1016.9 |
| 20260906224005 | 13 | 122 | 3.2 | 4.8 | 0.00 | 0.30 | 0.13 | 91 | 1016.9 |
| 20260906223506 | 13 | 183 | 1.6 | 4.8 | 0.00 | 0.33 | 0.13 | 92 | 1016.8 |
| 20260906222506 | 12 | 295 | 1.6 | 3.2 | 0.00 | 0.33 | 0.13 | 93 | 1016.8 |
| 20260906222005 | 12 | 161 | 0.0 | 3.2 | 0.00 | 0.33 | 0.13 | 94 | 1016.8 |
| 20260906221505 | 12 | 136 | 1.6 | 3.2 | 0.00 | 0.33 | 0.13 | 94 | 1016.9 |
| 20260906221005 | 12 | 79 | 0.0 | 3.2 | 0.00 | 0.36 | 0.13 | 93 | 1016.8 |
| 20260906220505 | 12 | 193 | 0.0 | 1.6 | 0.00 | 0.38 | 0.13 | 93 | 1017.1 |
| 20260906220005 | 12 | 139 | 0.0 | 4.8 | 0.00 | 0.41 | 0.13 | 93 | 1017.1 |
| 20260906214505 | 12 | 124 | 0.0 | 3.2 | 0.00 | 0.43 | 0.13 | 94 | 1017.0 |
| 20260906214005 | 12 | 111 | 3.2 | 4.8 | 0.00 | 0.43 | 0.13 | 94 | 1017.0 |
| 20260906212505 | 12 | 147 | 1.6 | 3.2 | 0.00 | 0.43 | 0.13 | 94 | 1017.1 |
| 20260906212005 | 12 | 151 | 3.2 | 8.0 | 0.00 | 0.43 | 0.13 | 94 | 1017.1 |
| 20260906211505 | 12 | 140 | 1.6 | 4.8 | 0.00 | 0.46 | 0.13 | 93 | 1017.1 |
| 20260906211004 | 12 | 130 | 3.2 | 8.0 | 0.00 | 0.46 | 0.13 | 93 | 1017.1 |
| 20260906210505 | 12 | 119 | 3.2 | 9.7 | 0.00 | 0.46 | 0.13 | 94 | 1017.1 |
| 20260906210005 | 12 | 125 | 4.8 | 12.9 | 0.00 | 0.46 | 0.13 | 93 | 1017.1 |
| 20260906205505 | 12 | 142 | 1.6 | 4.8 | 0.00 | 0.46 | 0.13 | 94 | 1017.2 |
| 20260906205005 | 12 | 161 | 3.2 | 4.8 | 0.00 | 0.46 | 0.13 | 95 | 1017.2 |
| 20260906204005 | 11 | 95 | 3.2 | 8.0 | 0.00 | 0.46 | 0.13 | 95 | 1017.2 |
| 20260906203505 | 11 | 142 | 3.2 | 4.8 | 0.00 | 0.48 | 0.13 | 95 | 1017.2 |
| 20260906203005 | 11 | 147 | 1.6 | 4.8 | 0.00 | 0.48 | 0.13 | 95 | 1017.3 |
| 20260906202505 | 11 | 153 | 0.0 | 4.8 | 0.00 | 0.48 | 0.13 | 95 | 1017.2 |
| 20260906201505 | 11 | 127 | 1.6 | 4.8 | 0.03 | 0.51 | 0.13 | 96 | 1017.3 |
| 20260906201005 | 11 | 145 | 1.6 | 4.8 | 0.03 | 0.51 | 0.13 | 96 | 1017.4 |
| 20260906200505 | 11 | 149 | 1.6 | 4.8 | 0.03 | 0.51 | 0.13 | 96 | 1017.5 |
| 20260906200005 | 11 | 134 | 3.2 | 4.8 | 0.03 | 0.53 | 0.13 | 96 | 1017.4 |
| 20260906195505 | 11 | 140 | 3.2 | 4.8 | 0.03 | 0.53 | 0.13 | 96 | 1017.5 |
| 20260906195005 | 11 | 122 | 3.2 | 11.3 | 0.03 | 0.53 | 0.13 | 96 | 1017.6 |
| 20260906194504 | 11 | 146 | 1.6 | 4.8 | 0.03 | 0.53 | 0.13 | 96 | 1017.6 |
| 20260906194005 | 11 | 147 | 1.6 | 3.2 | 0.03 | 0.53 | 0.13 | 96 | 1017.6 |
| 20260906193505 | 11 | 253 | 1.6 | 4.8 | 0.03 | 0.53 | 0.13 | 96 | 1017.6 |
| 20260906193004 | 11 | 182 | 1.6 | 4.8 | 0.03 | 0.53 | 0.13 | 96 | 1017.6 |
| 20260906192005 | 10 | 133 | 1.6 | 4.8 | 0.03 | 0.53 | 0.13 | 96 | 1017.7 |
| 20260906191505 | 10 | 119 | 1.6 | 8.0 | 0.00 | 0.51 | 0.10 | 96 | 1017.8 |
| 20260906191005 | 10 | 339 | 0.0 | 3.2 | 0.00 | 0.51 | 0.10 | 96 | 1017.8 |
| 20260906190505 | 10 | 169 | 1.6 | 4.8 | 0.00 | 0.51 | 0.10 | 96 | 1017.9 |
| 20260906190005 | 10 | 235 | 1.6 | 4.8 | 0.00 | 0.51 | 0.10 | 96 | 1018.0 |
| 20260906185004 | 10 | 124 | 3.2 | 9.7 | 0.00 | 0.53 | 0.10 | 96 | 1018.0 |
| 20260906184005 | 10 | 70 | 1.6 | 4.8 | 0.00 | 0.53 | 0.10 | 96 | 1018.0 |
| 20260906183504 | 10 | 76 | 1.6 | 4.8 | 0.00 | 0.53 | 0.10 | 96 | 1018.0 |
| 20260906183005 | 10 | 81 | 1.6 | 4.8 | 0.00 | 0.53 | 0.10 | 96 | 1018.0 |
| 20260906182505 | 10 | 172 | 0.0 | 8.0 | 0.00 | 0.53 | 0.10 | 96 | 1018.1 |
| 20260906182004 | 10 | 167 | 0.0 | 3.2 | 0.00 | 0.53 | 0.10 | 96 | 1018.2 |
| 20260906181533 | 10 | 2 | 0.0 | 4.8 | 0.00 | 0.53 | 0.10 | 96 | 1018.2 |
| 20260906181012 | 10 | 105 | 0.0 | 4.8 | 0.00 | 0.53 | 0.10 | 96 | 1018.2 |
| 20260906180505 | 10 | 142 | 0.0 | 3.2 | 0.03 | 0.53 | 0.10 | 96 | 1018.3 |
| 20260906175505 | 10 | 89 | 1.6 | 3.2 | 0.05 | 0.53 | 0.10 | 96 | 1018.2 |
| 20260906175004 | 10 | 99 | 0.0 | 4.8 | 0.05 | 0.53 | 0.10 | 96 | 1018.4 |
| 20260906174504 | 10 | 154 | 1.6 | 1.6 | 0.05 | 0.53 | 0.10 | 96 | 1018.3 |
| 20260906173505 | 9 | 102 | 0.0 | 1.6 | 0.05 | 0.53 | 0.10 | 96 | 1018.5 |
| 20260906173005 | 9 | 100 | 1.6 | 4.8 | 0.05 | 0.53 | 0.10 | 96 | 1018.5 |
| 20260906172505 | 9 | 55 | 0.0 | 3.2 | 0.05 | 0.53 | 0.10 | 96 | 1018.6 |
| 20260906171505 | 9 | 129 | 0.0 | 3.2 | 0.05 | 0.53 | 0.10 | 96 | 1018.7 |
| 20260906171004 | 9 | 66 | 0.0 | 4.8 | 0.05 | 0.53 | 0.10 | 95 | 1018.7 |
| 20260906170505 | 9 | 313 | 0.0 | 3.2 | 0.05 | 0.51 | 0.08 | 95 | 1018.8 |
| 20260906164505 | 8 | 309 | 0.0 | 0.0 | 0.03 | 0.48 | 0.05 | 95 | 1019.1 |
| 20260906164005 | 8 | 309 | 0.0 | 0.0 | 0.03 | 0.48 | 0.05 | 95 | 1019.0 |
| 20260906163505 | 8 | 309 | 0.0 | 1.6 | 0.03 | 0.48 | 0.05 | 95 | 1019.0 |
| 20260906163004 | 8 | 309 | 0.0 | 0.0 | 0.03 | 0.48 | 0.05 | 95 | 1019.0 |
| 20260906162504 | 8 | 309 | 0.0 | 1.6 | 0.03 | 0.48 | 0.05 | 95 | 1019.1 |
| 20260906162004 | 8 | 309 | 0.0 | 1.6 | 0.03 | 0.48 | 0.05 | 95 | 1019.2 |
| 20260906161505 | 8 | 309 | 0.0 | 1.6 | 0.03 | 0.48 | 0.05 | 95 | 1019.2 |
| 20260906161005 | 8 | 309 | 1.6 | 1.6 | 0.03 | 0.48 | 0.05 | 95 | 1019.1 |
| 20260906160505 | 8 | 309 | 1.6 | 1.6 | 0.00 | 0.46 | 0.03 | 95 | 1019.1 |
| 20260906160004 | 8 | 309 | 0.0 | 1.6 | 0.00 | 0.46 | 0.03 | 95 | 1019.1 |
| 20260906155504 | 8 | 309 | 0.0 | 3.2 | 0.00 | 0.46 | 0.03 | 95 | 1019.1 |
| 20260906155004 | 8 | 286 | 1.6 | 3.2 | 0.00 | 0.46 | 0.03 | 96 | 1019.1 |
| 20260906154505 | 8 | 265 | 0.0 | 1.6 | 0.00 | 0.46 | 0.03 | 96 | 1019.2 |
| 20260906154005 | 8 | 265 | 0.0 | 1.6 | 0.00 | 0.46 | 0.03 | 96 | 1019.2 |
| 20260906153504 | 8 | 265 | 0.0 | 1.6 | 0.00 | 0.46 | 0.03 | 96 | 1019.1 |
| 20260906153004 | 8 | 265 | 0.0 | 1.6 | 0.00 | 0.46 | 0.03 | 96 | 1019.1 |
| 20260906152505 | 8 | 265 | 0.0 | 1.6 | 0.00 | 0.46 | 0.03 | 96 | 1019.1 |
| 20260906152005 | 7 | 265 | 0.0 | 1.6 | 0.00 | 0.46 | 0.03 | 96 | 1019.1 |
| 20260906151505 | 8 | 264 | 1.6 | 3.2 | 0.00 | 0.46 | 0.03 | 97 | 1019.1 |
| 20260906151004 | 8 | 240 | 0.0 | 1.6 | 0.00 | 0.46 | 0.03 | 97 | 1019.2 |
| 20260906150505 | 8 | 296 | 0.0 | 0.0 | 0.00 | 0.46 | 0.03 | 97 | 1019.1 |
| 20260906150005 | 7 | 333 | 0.0 | 0.0 | 0.00 | 0.46 | 0.03 | 97 | 1019.2 |
| 20260906145504 | 7 | 333 | 0.0 | 0.0 | 0.00 | 0.46 | 0.03 | 97 | 1019.3 |
| 20260906145004 | 7 | 333 | 0.0 | 1.6 | 0.00 | 0.46 | 0.03 | 97 | 1019.1 |
| 20260906144505 | 7 | 333 | 0.0 | 1.6 | 0.00 | 0.46 | 0.03 | 97 | 1019.0 |
| 20260906144005 | 7 | 333 | 0.0 | 1.6 | 0.00 | 0.46 | 0.03 | 97 | 1019.0 |
| 20260906143504 | 7 | 333 | 1.6 | 1.6 | 0.00 | 0.46 | 0.03 | 97 | 1018.9 |
| 20260906143004 | 7 | 333 | 0.0 | 0.0 | 0.00 | 0.46 | 0.03 | 97 | 1019.0 |
| 20260906142504 | 7 | 333 | 0.0 | 0.0 | 0.00 | 0.46 | 0.03 | 97 | 1019.1 |
| 20260906142005 | 7 | 333 | 0.0 | 1.6 | 0.03 | 0.46 | 0.03 | 97 | 1019.2 |
| 20260906141505 | 7 | 333 | 1.6 | 3.2 | 0.03 | 0.46 | 0.03 | 97 | 1019.2 |
| 20260906141004 | 7 | 313 | 0.0 | 1.6 | 0.03 | 0.46 | 0.03 | 96 | 1019.1 |
| 20260906140504 | 7 | 313 | 1.6 | 1.6 | 0.03 | 0.46 | 0.03 | 97 | 1019.1 |
| 20260906140004 | 7 | 278 | 1.6 | 1.6 | 0.03 | 0.46 | 0.03 | 97 | 1019.2 |
| 20260906135505 | 7 | 272 | 0.0 | 1.6 | 0.03 | 0.46 | 0.03 | 96 | 1019.2 |
| 20260906135004 | 7 | 247 | 1.6 | 3.2 | 0.03 | 0.46 | 0.03 | 96 | 1019.3 |
| 20260906134505 | 7 | 255 | 1.6 | 1.6 | 0.03 | 0.46 | 0.03 | 96 | 1019.3 |
| 20260906134005 | 7 | 243 | 0.0 | 1.6 | 0.03 | 0.46 | 0.03 | 96 | 1019.3 |
| 20260906133005 | 7 | 256 | 3.2 | 4.8 | 0.03 | 0.46 | 0.03 | 96 | 1019.2 |
| 20260906132504 | 7 | 248 | 3.2 | 3.2 | 0.03 | 0.46 | 0.03 | 96 | 1019.4 |
| 20260906131505 | 7 | 97 | 0.0 | 1.6 | 0.00 | 0.43 | 0.00 | 96 | 1019.3 |
| 20260906131005 | 7 | 97 | 0.0 | 0.0 | 0.00 | 0.43 | 0.00 | 96 | 1019.3 |
| 20260906130505 | 7 | 97 | 0.0 | 1.6 | 0.00 | 0.43 | 0.00 | 96 | 1019.4 |
| 20260906130005 | 7 | 97 | 0.0 | 1.6 | 0.00 | 0.43 | 0.00 | 96 | 1019.5 |
| 20260906125004 | 7 | 97 | 0.0 | 0.0 | 0.00 | 0.43 | 0.00 | 96 | 1019.4 |
| 20260906124004 | 7 | 97 | 0.0 | 1.6 | 0.00 | 0.43 | 0.00 | 96 | 1019.5 |
| 20260906123505 | 7 | 97 | 0.0 | 1.6 | 0.00 | 0.43 | 0.00 | 96 | 1019.6 |
| 20260906123005 | 7 | 97 | 0.0 | 0.0 | 0.00 | 0.43 | 0.00 | 97 | 1019.5 |
| 20260906122505 | 7 | 81 | 0.0 | 1.6 | 0.00 | 0.43 | 0.00 | 97 | 1019.7 |
| 20260906122005 | 7 | 77 | 0.0 | 0.0 | 0.00 | 0.43 | 0.00 | 97 | 1019.6 |
| 20260906121005 | 7 | 77 | 1.6 | 3.2 | 0.00 | 0.43 | 0.00 | 97 | 1019.8 |
| 20260906120505 | 7 | 247 | 0.0 | 0.0 | 0.00 | 0.43 | 0.00 | 97 | 1020.0 |
| 20260906120004 | 7 | 247 | 0.0 | 0.0 | 0.00 | 0.43 | 0.00 | 97 | 1020.1 |
| 20260906115504 | 7 | 247 | 0.0 | 0.0 | 0.00 | 0.43 | 0.00 | 96 | 1020.3 |
| 20260906115004 | 7 | 247 | 0.0 | 0.0 | 0.00 | 0.43 | 0.00 | 96 | 1020.5 |
| 20260906114504 | 7 | 247 | 0.0 | 1.6 | 0.00 | 0.43 | 0.00 | 96 | 1020.4 |
| 20260906114004 | 7 | 247 | 0.0 | 1.6 | 0.00 | 0.43 | 0.00 | 96 | 1020.4 |
| 20260906113505 | 7 | 256 | 0.0 | 1.6 | 0.00 | 0.43 | 0.00 | 96 | 1020.3 |
| 20260906113004 | 7 | 256 | 1.6 | 1.6 | 0.00 | 0.43 | 0.00 | 96 | 1020.3 |
| 20260906112505 | 7 | 192 | 0.0 | 1.6 | 0.00 | 0.43 | 0.00 | 96 | 1020.4 |
| 20260906112005 | 7 | 192 | 0.0 | 0.0 | 0.00 | 0.43 | 0.00 | 96 | 1020.4 |
| 20260906111505 | 7 | 192 | 0.0 | 0.0 | 0.00 | 0.43 | 0.00 | 96 | 1020.4 |
| 20260906110505 | 7 | 192 | 0.0 | 1.6 | 0.00 | 0.43 | 0.00 | 96 | 1020.6 |
| 20260906110004 | 7 | 244 | 0.0 | 3.2 | 0.00 | 0.43 | 0.00 | 96 | 1020.5 |
| 20260906105005 | 7 | 199 | 1.6 | 1.6 | 0.00 | 0.43 | 0.00 | 96 | 1020.7 |
| 20260906104505 | 7 | 199 | 0.0 | 0.0 | 0.00 | 0.43 | 0.00 | 96 | 1020.7 |
| 20260906104004 | 7 | 199 | 0.0 | 1.6 | 0.00 | 0.43 | 0.00 | 96 | 1020.5 |
| 20260906103505 | 7 | 199 | 1.6 | 1.6 | 0.00 | 0.43 | 0.00 | 96 | 1020.6 |
| 20260906102505 | 7 | 122 | 0.0 | 1.6 | 0.00 | 0.43 | 0.00 | 96 | 1020.2 |
| 20260906102005 | 7 | 122 | 0.0 | 1.6 | 0.00 | 0.43 | 0.00 | 97 | 1020.3 |
| 20260906101505 | 7 | 121 | 0.0 | 1.6 | 0.00 | 0.43 | 0.00 | 97 | 1020.4 |
| 20260906101004 | 7 | 110 | 1.6 | 3.2 | 0.00 | 0.43 | 0.00 | 97 | 1020.3 |
| 20260906100505 | 7 | 74 | 0.0 | 3.2 | 0.00 | 0.43 | 0.00 | 96 | 1020.3 |
| 20260906100004 | 7 | 74 | 0.0 | 1.6 | 0.00 | 0.43 | 0.00 | 96 | 1020.3 |
| 20260906094505 | 7 | 74 | 0.0 | 1.6 | 0.00 | 0.43 | 0.00 | 96 | 1020.7 |
| 20260906093505 | 7 | 74 | 0.0 | 3.2 | 0.00 | 0.43 | 0.00 | 96 | 1020.9 |
| 20260906093004 | 7 | 70 | 3.2 | 4.8 | 0.00 | 0.43 | 0.00 | 96 | 1020.8 |
| 20260906092504 | 7 | 200 | 1.6 | 1.6 | 0.00 | 0.43 | 0.00 | 96 | 1020.8 |
| 20260906092004 | 7 | 238 | 0.0 | 1.6 | 0.00 | 0.43 | 0.00 | 96 | 1020.8 |
| 20260906091504 | 7 | 238 | 0.0 | 1.6 | 0.00 | 0.43 | 0.00 | 96 | 1020.8 |
| 20260906091005 | 7 | 238 | 0.0 | 1.6 | 0.00 | 0.43 | 0.00 | 96 | 1020.8 |
| 20260906090505 | 7 | 238 | 0.0 | 0.0 | 0.00 | 0.43 | 0.00 | 96 | 1020.9 |
| 20260906090004 | 7 | 238 | 0.0 | 1.6 | 0.00 | 0.43 | 0.00 | 96 | 1020.9 |
| 20260906085505 | 7 | 238 | 0.0 | 0.0 | 0.00 | 0.43 | 0.00 | 96 | 1020.9 |
| 20260906085005 | 7 | 238 | 0.0 | 1.6 | 0.00 | 0.43 | 0.00 | 96 | 1021.0 |
| 20260906084504 | 7 | 238 | 0.0 | 0.0 | 0.00 | 0.43 | 0.00 | 96 | 1021.1 |
| 20260906084004 | 7 | 238 | 0.0 | 1.6 | 0.00 | 0.43 | 0.00 | 96 | 1021.2 |
| 20260906083505 | 8 | 238 | 0.0 | 0.0 | 0.00 | 0.43 | 0.00 | 96 | 1021.3 |
| 20260906082504 | 8 | 238 | 0.0 | 0.0 | 0.00 | 0.43 | 0.00 | 96 | 1021.5 |
| 20260906081004 | 8 | 238 | 0.0 | 1.6 | 0.00 | 0.43 | 0.00 | 96 | 1021.6 |
| 20260906080505 | 8 | 238 | 0.0 | 1.6 | 0.00 | 0.43 | 0.00 | 96 | 1021.7 |
| 20260906080005 | 8 | 238 | 0.0 | 1.6 | 0.00 | 0.43 | 0.00 | 96 | 1021.6 |
| 20260906075504 | 8 | 238 | 0.0 | 0.0 | 0.00 | 0.43 | 0.00 | 96 | 1021.5 |
| 20260906075005 | 8 | 238 | 0.0 | 0.0 | 0.00 | 0.43 | 0.00 | 96 | 1021.6 |
| 20260906074504 | 8 | 238 | 0.0 | 0.0 | 0.00 | 0.43 | 0.00 | 96 | 1021.6 |
| 20260906074004 | 8 | 238 | 0.0 | 1.6 | 0.00 | 0.43 | 0.00 | 96 | 1021.6 |
| 20260906073505 | 8 | 238 | 0.0 | 0.0 | 0.00 | 0.43 | 0.00 | 96 | 1021.7 |
| 20260906073004 | 8 | 238 | 0.0 | 0.0 | 0.00 | 0.43 | 0.00 | 96 | 1021.6 |
| 20260906072504 | 8 | 238 | 0.0 | 0.0 | 0.00 | 0.43 | 0.00 | 96 | 1021.7 |
| 20260906072004 | 8 | 238 | 0.0 | 0.0 | 0.00 | 0.43 | 0.00 | 96 | 1021.7 |
| 20260906071504 | 8 | 238 | 0.0 | 0.0 | 0.00 | 0.43 | 0.00 | 96 | 1021.7 |
| 20260906070504 | 8 | 238 | 0.0 | 0.0 | 0.00 | 0.43 | 0.00 | 96 | 1021.7 |
| 20260906070004 | 8 | 238 | 0.0 | 0.0 | 0.00 | 0.43 | 0.00 | 96 | 1021.9 |
| 20260906064505 | 8 | 238 | 0.0 | 0.0 | 0.00 | 0.43 | 0.00 | 96 | 1021.9 |
| 20260906063505 | 8 | 238 | 0.0 | 0.0 | 0.00 | 0.43 | 0.00 | 96 | 1021.9 |
| 20260906062504 | 8 | 238 | 0.0 | 0.0 | 0.00 | 0.43 | 0.00 | 96 | 1021.8 |
| 20260906062004 | 8 | 238 | 0.0 | 0.0 | 0.00 | 0.43 | 0.00 | 96 | 1021.8 |
| 20260906061504 | 8 | 238 | 0.0 | 1.6 | 0.00 | 0.43 | 0.00 | 96 | 1021.9 |
| 20260906061004 | 8 | 238 | 0.0 | 1.6 | 0.00 | 0.43 | 0.00 | 96 | 1021.8 |
| 20260906060505 | 8 | 238 | 0.0 | 1.6 | 0.00 | 0.43 | 0.00 | 96 | 1021.9 |
| 20260906060005 | 8 | 238 | 0.0 | 1.6 | 0.00 | 0.43 | 0.00 | 96 | 1021.8 |
| 20260906055505 | 8 | 234 | 0.0 | 1.6 | 0.00 | 0.43 | 0.43 | 96 | 1021.9 |
| 20260906055005 | 8 | 284 | 0.0 | 0.0 | 0.00 | 0.43 | 0.43 | 96 | 1021.8 |
| 20260906054004 | 8 | 284 | 0.0 | 1.6 | 0.00 | 0.43 | 0.43 | 96 | 1021.9 |
| 20260906053005 | 8 | 289 | 1.6 | 1.6 | 0.00 | 0.43 | 0.43 | 96 | 1022.1 |
| 20260906052505 | 8 | 289 | 0.0 | 1.6 | 0.00 | 0.43 | 0.43 | 96 | 1022.0 |
| 20260906051504 | 8 | 287 | 1.6 | 3.2 | 0.00 | 0.43 | 0.43 | 96 | 1022.1 |
| 20260906051004 | 8 | 281 | 1.6 | 3.2 | 0.00 | 0.43 | 0.43 | 96 | 1022.2 |
| 20260906050505 | 8 | 275 | 1.6 | 4.8 | 0.00 | 0.43 | 0.43 | 96 | 1022.2 |
| 20260906045505 | 8 | 249 | 1.6 | 3.2 | 0.00 | 0.43 | 0.43 | 96 | 1022.2 |
| 20260906045004 | 8 | 244 | 1.6 | 3.2 | 0.00 | 0.43 | 0.43 | 96 | 1022.3 |
| 20260906044505 | 8 | 201 | 0.0 | 1.6 | 0.00 | 0.43 | 0.43 | 96 | 1022.3 |
| 20260906044005 | 8 | 201 | 0.0 | 0.0 | 0.00 | 0.43 | 0.43 | 96 | 1022.2 |
| 20260906043504 | 8 | 201 | 0.0 | 1.6 | 0.00 | 0.43 | 0.43 | 96 | 1022.1 |
| 20260906043006 | 8 | 201 | 0.0 | 0.0 | 0.00 | 0.43 | 0.43 | 96 | 1022.1 |
| 20260906042504 | 8 | 201 | 0.0 | 1.6 | 0.00 | 0.43 | 0.43 | 96 | 1022.1 |
| 20260906041506 | 8 | 278 | 0.0 | 0.0 | 0.00 | 0.43 | 0.43 | 96 | 1022.0 |
| 20260906040504 | 8 | 278 | 0.0 | 1.6 | 0.00 | 0.43 | 0.43 | 96 | 1021.8 |
| 20260906040005 | 8 | 284 | 1.6 | 1.6 | 0.00 | 0.43 | 0.43 | 96 | 1021.9 |
| 20260906034005 | 8 | 323 | 1.6 | 4.8 | 0.00 | 0.43 | 0.43 | 96 | 1021.5 |
| 20260906033505 | 8 | 334 | 0.0 | 1.6 | 0.00 | 0.43 | 0.43 | 96 | 1021.5 |
| 20260906033004 | 8 | 334 | 1.6 | 1.6 | 0.00 | 0.43 | 0.43 | 96 | 1021.5 |
| 20260906032504 | 8 | 334 | 1.6 | 3.2 | 0.00 | 0.43 | 0.43 | 96 | 1021.4 |
| 20260906032005 | 8 | 340 | 1.6 | 4.8 | 0.00 | 0.43 | 0.43 | 96 | 1021.4 |
| 20260906031507 | 7 | 355 | 1.6 | 4.8 | 0.00 | 0.43 | 0.43 | 96 | 1021.5 |
| 20260906031005 | 7 | 343 | 1.6 | 3.2 | 0.03 | 0.43 | 0.43 | 96 | 1021.4 |
| 20260906030505 | 7 | 348 | 0.0 | 3.2 | 0.03 | 0.43 | 0.43 | 96 | 1021.4 |
| 20260906030004 | 7 | 328 | 0.0 | 3.2 | 0.03 | 0.43 | 0.43 | 96 | 1021.4 |
| 20260906025504 | 8 | 348 | 1.6 | 4.8 | 0.03 | 0.43 | 0.43 | 96 | 1021.4 |
| 20260906025004 | 8 | 343 | 1.6 | 4.8 | 0.03 | 0.43 | 0.43 | 96 | 1021.3 |
| 20260906024504 | 8 | 338 | 3.2 | 4.8 | 0.03 | 0.43 | 0.43 | 96 | 1021.3 |
| 20260906023505 | 8 | 342 | 3.2 | 4.8 | 0.05 | 0.43 | 0.43 | 96 | 1021.3 |
| 20260906023004 | 8 | 317 | 1.6 | 3.2 | 0.05 | 0.43 | 0.43 | 96 | 1021.4 |
| 20260906022504 | 8 | 304 | 3.2 | 4.8 | 0.05 | 0.43 | 0.43 | 96 | 1021.5 |
| 20260906022005 | 8 | 297 | 1.6 | 3.2 | 0.05 | 0.43 | 0.43 | 96 | 1021.6 |
| 20260906021504 | 8 | 301 | 1.6 | 3.2 | 0.05 | 0.43 | 0.43 | 96 | 1021.6 |
| 20260906020504 | 8 | 293 | 1.6 | 1.6 | 0.03 | 0.43 | 0.43 | 96 | 1021.7 |
| 20260906020004 | 8 | 293 | 1.6 | 1.6 | 0.03 | 0.43 | 0.43 | 96 | 1021.7 |
| 20260906015004 | 8 | 316 | 1.6 | 3.2 | 0.05 | 0.43 | 0.43 | 96 | 1021.7 |
| 20260906013504 | 8 | 342 | 1.6 | 3.2 | 0.03 | 0.41 | 0.41 | 95 | 1021.4 |
| 20260906013004 | 8 | 345 | 1.6 | 3.2 | 0.03 | 0.41 | 0.41 | 95 | 1021.4 |
| 20260906012505 | 8 | 334 | 1.6 | 3.2 | 0.03 | 0.41 | 0.41 | 95 | 1021.5 |
| 20260906012004 | 8 | 336 | 1.6 | 3.2 | 0.05 | 0.41 | 0.41 | 95 | 1021.4 |
| 20260906011504 | 8 | 326 | 3.2 | 3.2 | 0.05 | 0.41 | 0.41 | 95 | 1021.4 |
| 20260906011004 | 8 | 318 | 3.2 | 4.8 | 0.05 | 0.41 | 0.41 | 95 | 1021.4 |
| 20260906010505 | 8 | 321 | 3.2 | 4.8 | 0.08 | 0.41 | 0.41 | 95 | 1021.3 |
| 20260906010004 | 8 | 320 | 1.6 | 3.2 | 0.08 | 0.41 | 0.41 | 95 | 1021.3 |
| 20260906005504 | 8 | 324 | 3.2 | 3.2 | 0.08 | 0.41 | 0.41 | 95 | 1021.3 |
| 20260906005004 | 8 | 343 | 3.2 | 4.8 | 0.08 | 0.38 | 0.38 | 95 | 1021.3 |
| 20260906004504 | 8 | 342 | 3.2 | 4.8 | 0.08 | 0.38 | 0.38 | 95 | 1021.3 |
| 20260906004004 | 8 | 331 | 3.2 | 4.8 | 0.10 | 0.38 | 0.38 | 95 | 1021.3 |
| 20260906003504 | 8 | 329 | 1.6 | 4.8 | 0.10 | 0.38 | 0.38 | 95 | 1021.4 |
| 20260906003005 | 8 | 325 | 1.6 | 4.8 | 0.10 | 0.38 | 0.38 | 95 | 1021.4 |
| 20260906002504 | 8 | 329 | 4.8 | 4.8 | 0.10 | 0.38 | 0.38 | 95 | 1021.3 |
| 20260906002004 | 8 | 336 | 3.2 | 4.8 | 0.08 | 0.36 | 0.36 | 95 | 1021.3 |
| 20260906001504 | 8 | 347 | 3.2 | 4.8 | 0.08 | 0.33 | 0.33 | 95 | 1021.3 |
| 20260906001004 | 8 | 333 | 3.2 | 4.8 | 0.08 | 0.33 | 0.33 | 95 | 1021.3 |
| 20260906000504 | 8 | 347 | 3.2 | 4.8 | 0.05 | 0.33 | 0.33 | 95 | 1021.3 |
| 20260906000004 | 8 | 330 | 3.2 | 4.8 | 0.05 | 0.33 | 0.33 | 95 | 1021.3 |
| 20260905235504 | 8 | 358 | 3.2 | 4.8 | 0.05 | 0.33 | 0.33 | 95 | 1021.4 |
| 20260905235005 | 8 | 332 | 4.8 | 4.8 | 0.05 | 0.30 | 0.30 | 95 | 1021.3 |